Time;durP1;ratioP1;P1;durP2;ratioP2;P2;SDS_P1;SDS_P2;PMS_P1;PMS_P2;Temp;Humidity;BMP_temperature;BMP_pressure;BME280_temperature;BME280_humidity;BME280_pressure;Samples;Min_cycle;Max_cycle;Signal;HPM_P1;HPM_P2
2022/05/17 00:01:13;;;;;;;4.37;1.32;;;;;;;10.23;72.99;100027.89;1774192;81;21200;-85
2022/05/17 00:04:20;;;;;;;6.22;1.55;;;;;;;10.21;73.22;100029.97;1773832;81;21716;-84
2022/05/17 00:07:26;;;;;;;4.65;1.70;;;;;;;10.20;73.46;100028.23;1784487;79;21194;-85
2022/05/17 00:10:32;;;;;;;4.83;1.90;;;;;;;10.21;73.61;100024.50;1783587;80;21201;-85
2022/05/17 00:13:38;;;;;;;7.67;2.05;;;;;;;10.22;73.72;100019.36;1783713;79;21205;-85
2022/05/17 00:16:44;;;;;;;9.80;2.37;;;;;;;10.26;73.71;100020.73;1784723;79;21687;-85
2022/05/17 00:19:50;;;;;;;5.70;2.12;;;;;;;10.28;73.96;100015.92;1784219;80;21690;-85
2022/05/17 00:22:56;;;;;;;6.95;2.22;;;;;;;10.31;74.13;100019.67;1783239;79;21260;-85
2022/05/17 00:26:03;;;;;;;7.40;2.58;;;;;;;10.34;74.10;100020.66;1784786;80;21165;-85
2022/05/17 00:29:09;;;;;;;4.03;1.92;;;;;;;10.38;73.88;100010.22;1784682;80;21237;-85
2022/05/17 00:32:16;;;;;;;10.03;3.10;;;;;;;10.41;73.44;100007.97;1784874;79;21752;-85
2022/05/17 00:35:21;;;;;;;6.05;2.47;;;;;;;10.48;73.09;100008.08;1784794;80;21162;-85
2022/05/17 00:38:27;;;;;;;6.08;3.10;;;;;;;10.54;72.76;100011.96;1783832;79;21218;-85
2022/05/17 00:41:32;;;;;;;11.28;3.00;;;;;;;10.59;72.69;100016.39;1784665;80;21268;-85
2022/05/17 00:44:44;;;;;;;6.72;3.22;;;;;;;10.62;72.70;100017.38;1784753;80;21158;-85
2022/05/17 00:47:55;;;;;;;13.58;3.42;;;;;;;10.63;72.39;100012.23;1783305;79;21204;-85
2022/05/17 00:51:01;;;;;;;6.55;3.05;;;;;;;10.64;72.09;100018.91;1784913;80;21163;-85
2022/05/17 00:54:16;;;;;;;6.72;3.05;;;;;;;10.65;72.19;100027.95;1753551;82;21220;-84
2022/05/17 00:57:34;;;;;;;13.35;3.58;;;;;;;10.63;72.01;100019.95;1752549;80;21785;-84
2022/05/17 01:00:44;;;;;;;8.50;3.05;;;;;;;10.63;71.37;100016.33;1752977;82;21185;-85
2022/05/17 01:04:07;;;;;;;11.40;3.80;;;;;;;10.66;70.74;100021.45;1752214;80;21224;-85
2022/05/17 01:07:20;;;;;;;7.62;3.62;;;;;;;10.69;70.35;100027.92;1746684;81;21200;-85
2022/05/17 01:10:27;;;;;;;9.93;3.62;;;;;;;10.70;70.28;100025.00;1744119;82;21223;-85
2022/05/17 01:16:58;;;;;;;6.00;3.20;;;;;;;10.74;69.58;100031.80;1744167;81;21187;-85
2022/05/17 01:20:05;;;;;;;7.03;3.52;;;;;;;10.78;69.29;100033.66;1745086;82;21215;-85
2022/05/17 01:23:10;;;;;;;6.75;3.12;;;;;;;10.80;69.35;100029.36;1743827;81;21199;-85
2022/05/17 01:26:23;;;;;;;9.73;3.22;;;;;;;10.81;69.20;100037.37;1745375;82;21769;-86
2022/05/17 01:29:29;;;;;;;7.00;2.75;;;;;;;10.82;69.08;100028.16;1745357;82;21208;-84
2022/05/17 01:32:34;;;;;;;7.97;3.40;;;;;;;10.83;68.57;100022.17;1745074;81;21200;-85
2022/05/17 01:35:40;;;;;;;15.43;3.65;;;;;;;10.85;68.27;100016.83;1745461;82;21203;-79
2022/05/17 01:38:50;;;;;;;7.17;3.10;;;;;;;10.87;67.95;100020.25;1743971;81;21746;-79
2022/05/17 01:41:53;;;;;;;6.97;2.92;;;;;;;10.90;67.73;100013.02;1744004;81;21176;-79
2022/05/17 01:45:00;;;;;;;7.30;2.62;;;;;;;10.90;67.58;100014.38;1745323;82;21172;-78
2022/05/17 01:48:05;;;;;;;7.70;3.12;;;;;;;10.87;67.48;100020.25;1744639;81;21183;-78
2022/05/17 01:51:12;;;;;;;11.15;2.65;;;;;;;10.88;67.35;100018.36;1744613;82;21200;-79
2022/05/17 01:54:18;;;;;;;9.58;2.98;;;;;;;10.87;66.80;100016.63;1745173;82;21165;-78
2022/05/17 01:57:24;;;;;;;7.22;2.67;;;;;;;10.89;66.55;100022.78;1744980;81;21239;-79
2022/05/17 02:00:30;;;;;;;18.20;2.90;;;;;;;10.89;66.15;100029.10;1745217;82;21783;-79
2022/05/17 02:03:35;;;;;;;6.97;2.92;;;;;;;10.89;65.68;100025.00;1744310;81;21204;-78
2022/05/17 02:06:34;;;;;;;8.08;2.70;;;;;;;10.91;64.84;100024.80;1742418;81;21728;-78
2022/05/17 02:09:40;;;;;;;11.50;3.20;;;;;;;10.91;64.41;100028.39;1745145;82;21176;-85
2022/05/17 02:12:46;;;;;;;13.45;2.87;;;;;;;10.93;63.87;100018.12;1744929;81;21781;-84
2022/05/17 02:15:51;;;;;;;11.68;2.50;;;;;;;10.96;63.61;100019.13;1745400;82;21160;-85
2022/05/17 02:18:56;;;;;;;9.68;2.50;;;;;;;10.97;63.60;100022.72;1743968;81;21192;-85
2022/05/17 02:22:03;;;;;;;6.17;2.62;;;;;;;10.98;63.18;100027.99;1744067;81;21211;-85
2022/05/17 02:25:09;;;;;;;6.10;2.40;;;;;;;10.99;62.23;100031.05;1743948;82;21190;-84
2022/05/17 02:28:16;;;;;;;13.35;2.95;;;;;;;11.00;62.40;100027.27;1744555;81;21235;-85
2022/05/17 02:31:21;;;;;;;11.55;2.37;;;;;;;11.02;62.20;100022.16;1745512;82;21232;-85
2022/05/17 02:34:27;;;;;;;10.72;2.15;;;;;;;11.03;61.83;100027.95;1745450;82;21770;-85
2022/05/17 02:37:32;;;;;;;5.40;2.05;;;;;;;11.05;61.25;100039.55;1745482;81;21207;-85
2022/05/17 02:40:37;;;;;;;6.83;2.52;;;;;;;11.06;61.48;100035.81;1745425;82;21239;-85
2022/05/17 02:43:42;;;;;;;9.15;2.05;;;;;;;11.07;60.85;100042.98;1744057;81;21235;-84
2022/05/17 02:46:49;;;;;;;9.10;2.20;;;;;;;11.08;59.86;100036.45;1745310;81;21176;-85
2022/05/17 02:49:55;;;;;;;8.23;1.87;;;;;;;11.11;59.75;100034.20;1745354;82;21161;-84
2022/05/17 02:53:01;;;;;;;8.10;1.85;;;;;;;11.14;59.61;100039.81;1744130;81;21164;-85
2022/05/17 02:56:06;;;;;;;6.40;1.90;;;;;;;11.17;59.85;100042.19;1744959;82;21191;-85
2022/05/17 02:59:18;;;;;;;4.87;1.82;;;;;;;11.19;60.17;100039.58;1745243;82;21149;-85
2022/05/17 03:02:22;;;;;;;6.58;1.80;;;;;;;11.22;59.59;100037.00;1743884;81;21199;-85
2022/05/17 03:05:22;;;;;;;10.90;2.33;;;;;;;11.26;59.69;100047.91;1745359;82;21625;-84
2022/05/17 03:08:36;;;;;;;11.50;2.75;;;;;;;11.33;59.68;100057.06;1743352;81;21204;-85
2022/05/17 03:11:43;;;;;;;8.58;1.92;;;;;;;11.40;59.06;100052.55;1742202;81;21418;-85
2022/05/17 03:14:48;;;;;;;7.70;2.20;;;;;;;11.49;58.76;100061.00;1743455;82;21165;-84
2022/05/17 03:17:54;;;;;;;6.28;2.02;;;;;;;11.56;58.20;100052.87;1743547;81;21168;-85
2022/05/17 03:21:00;;;;;;;5.35;2.00;;;;;;;11.62;58.10;100051.26;1743621;82;21165;-85
2022/05/17 03:24:07;;;;;;;13.72;2.50;;;;;;;11.64;58.15;100061.00;1743437;82;21172;-85
2022/05/17 03:27:13;;;;;;;10.53;2.50;;;;;;;11.67;58.47;100063.38;1742780;81;21176;-85
2022/05/17 03:30:20;;;;;;;10.70;2.15;;;;;;;11.69;58.54;100063.17;1743283;82;21215;-84
2022/05/17 03:33:26;;;;;;;6.80;2.25;;;;;;;11.71;58.27;100064.66;1742269;81;21192;-84
2022/05/17 03:36:32;;;;;;;6.58;1.95;;;;;;;11.75;58.03;100073.37;1743463;82;21227;-84
2022/05/17 03:39:37;;;;;;;9.35;2.08;;;;;;;11.77;57.92;100068.04;1743629;82;21159;-85
2022/05/17 03:42:43;;;;;;;12.88;2.27;;;;;;;11.82;57.39;100072.98;1743058;81;21164;-85
2022/05/17 03:45:42;;;;;;;15.25;3.12;;;;;;;11.85;57.00;100067.10;1743525;82;21175;-85
2022/05/17 03:48:35;;;;;;;3.75;1.98;;;;;;;11.90;56.82;100056.94;1741543;81;21911;-84
2022/05/17 03:51:40;;;;;;;10.28;2.52;;;;;;;11.96;56.81;100065.27;1742906;82;21204;-85
2022/05/17 03:54:47;;;;;;;8.30;2.22;;;;;;;12.03;56.60;100063.97;1742959;82;21185;-85
2022/05/17 03:57:53;;;;;;;5.72;2.08;;;;;;;12.13;56.32;100067.25;1741835;81;21220;-84
2022/05/17 04:00:59;;;;;;;12.37;2.02;;;;;;;12.22;56.47;100067.99;1743016;82;21212;-84
2022/05/17 04:04:05;;;;;;;14.07;1.80;;;;;;;12.27;56.05;100064.99;1742106;81;21248;-84
2022/05/17 04:07:09;;;;;;;11.65;1.85;;;;;;;12.31;55.81;100065.47;1743370;81;21737;-85
2022/05/17 04:10:15;;;;;;;7.33;2.52;;;;;;;12.37;56.05;100073.43;1742355;82;21748;-84
2022/05/17 04:13:20;;;;;;;5.15;1.55;;;;;;;12.44;55.92;100071.10;1745133;81;21196;-84
2022/05/17 04:16:27;;;;;;;9.58;2.70;;;;;;;12.50;55.33;100068.94;1745373;82;21145;-85
2022/05/17 04:19:33;;;;;;;10.43;1.92;;;;;;;12.56;54.66;100065.09;1745299;82;21709;-85
2022/05/17 04:22:38;;;;;;;7.22;1.67;;;;;;;12.59;54.31;100071.05;1744848;81;21211;-85
2022/05/17 04:25:46;;;;;;;9.00;2.30;;;;;;;12.61;54.28;100082.69;1745205;82;21172;-85
2022/05/17 04:28:52;;;;;;;6.35;1.80;;;;;;;12.64;54.40;100080.06;1744957;81;21254;-79
2022/05/17 04:31:57;;;;;;;8.63;2.08;;;;;;;12.68;54.48;100085.49;1745327;81;21184;-78
2022/05/17 04:35:04;;;;;;;4.92;1.52;;;;;;;12.72;54.64;100086.28;1745440;82;21188;-85
2022/05/17 04:38:09;;;;;;;8.68;2.02;;;;;;;12.79;55.19;100079.47;1745610;81;21674;-82
2022/05/17 04:41:14;;;;;;;3.70;1.75;;;;;;;12.89;54.72;100079.14;1745629;82;21208;-86
2022/05/17 04:44:21;;;;;;;14.83;2.00;;;;;;;13.00;54.31;100084.96;1744539;82;21203;-84
2022/05/17 04:47:27;;;;;;;4.80;1.82;;;;;;;13.10;54.29;100076.91;1761057;79;21196;-84
2022/05/17 04:50:34;;;;;;;7.97;1.77;;;;;;;13.21;53.13;100077.20;1771617;79;21157;-79
2022/05/17 04:53:40;;;;;;;11.48;1.60;;;;;;;13.31;52.60;100071.39;1772795;79;21156;-79
2022/05/17 04:56:46;;;;;;;4.03;1.65;;;;;;;13.47;52.33;100078.50;1760217;79;21212;-79
2022/05/17 04:59:53;;;;;;;10.10;1.57;;;;;;;13.68;51.89;100074.81;1710906;82;21221;-79
2022/05/17 05:02:59;;;;;;;4.87;1.30;;;;;;;13.91;51.73;100074.00;1734389;81;21243;-78
2022/05/17 05:06:04;;;;;;;4.25;1.22;;;;;;;14.12;51.11;100066.17;1723936;82;21283;-79
2022/05/17 05:09:14;;;;;;;7.70;1.15;;;;;;;14.33;49.25;100056.93;1737435;82;21757;-78
2022/05/17 05:12:17;;;;;;;14.55;1.10;;;;;;;14.60;48.58;100059.80;1712046;82;21216;-79
2022/05/17 05:15:24;;;;;;;6.17;1.07;;;;;;;14.95;46.42;100061.31;1742656;80;21223;-79
2022/05/17 05:18:31;;;;;;;6.28;0.85;;;;;;;15.20;45.87;100066.21;1745474;81;21215;-80
2022/05/17 05:21:38;;;;;;;5.47;1.30;;;;;;;15.28;44.38;100061.30;1743199;82;21712;-79
2022/05/17 05:24:38;;;;;;;10.78;1.15;;;;;;;15.31;43.63;100056.75;1745783;82;21207;-79
2022/05/17 05:27:32;;;;;;;10.32;1.15;;;;;;;15.30;44.22;100062.49;1716492;82;21202;-79
2022/05/17 05:30:37;;;;;;;4.33;1.37;;;;;;;15.26;43.70;100059.84;1739146;80;21215;-76
2022/05/17 05:33:42;;;;;;;4.33;1.02;;;;;;;15.23;43.43;100059.72;1736706;82;21227;-78
2022/05/17 05:36:48;;;;;;;4.70;1.20;;;;;;;15.21;43.62;100068.74;1741674;82;21197;-78
2022/05/17 05:39:54;;;;;;;8.98;1.20;;;;;;;15.17;44.09;100063.87;1740102;81;21205;-77
2022/05/17 05:43:01;;;;;;;3.42;1.20;;;;;;;15.14;43.69;100062.91;1727294;83;21217;-77
2022/05/17 05:46:06;;;;;;;6.90;0.88;;;;;;;15.12;41.68;100063.13;1707351;84;21187;-78
2022/05/17 05:49:12;;;;;;;4.17;1.00;;;;;;;15.12;40.18;100063.66;1707626;84;21174;-78
2022/05/17 05:52:20;;;;;;;3.42;1.15;;;;;;;15.16;39.96;100067.16;1707705;83;21238;-78
2022/05/17 05:55:29;;;;;;;2.42;1.15;;;;;;;15.16;38.83;100064.41;1709895;83;21214;-77
2022/05/17 05:58:37;;;;;;;7.87;1.30;;;;;;;15.19;39.42;100065.87;1747534;81;21204;-78
2022/05/17 06:01:42;;;;;;;5.92;1.40;;;;;;;15.25;40.40;100058.15;1741887;80;21918;-78
2022/05/17 06:04:48;;;;;;;7.12;1.98;;;;;;;15.28;39.83;100070.95;1755939;80;21176;-78
2022/05/17 06:07:53;;;;;;;7.00;1.25;;;;;;;15.32;40.44;100066.71;1742644;80;21217;-78
2022/05/17 06:11:01;;;;;;;5.03;1.10;;;;;;;15.37;38.31;100066.61;1713353;83;21192;-79
2022/05/17 06:14:06;;;;;;;3.20;1.20;;;;;;;15.34;36.65;100067.90;1724455;82;21239;-78
2022/05/17 06:17:12;;;;;;;7.40;1.65;;;;;;;15.36;36.25;100061.63;1742589;82;21160;-78
2022/05/17 06:20:18;;;;;;;3.75;1.87;;;;;;;15.53;36.25;100062.89;1744155;81;21175;-78
2022/05/17 06:23:23;;;;;;;8.65;1.70;;;;;;;15.69;35.42;100062.98;1737642;81;21195;-78
2022/05/17 06:26:29;;;;;;;2.37;1.57;;;;;;;15.85;36.44;100067.17;1737471;82;21210;-78
2022/05/17 06:29:34;;;;;;;12.65;1.47;;;;;;;15.98;36.56;100065.75;1721768;82;21206;-78
2022/05/17 06:32:40;;;;;;;6.55;1.80;;;;;;;16.05;34.51;100064.37;1744767;81;21232;-78
2022/05/17 06:35:50;;;;;;;6.17;1.85;;;;;;;16.14;33.89;100064.95;1767713;81;21220;-78
2022/05/17 06:38:47;;;;;;;3.75;1.85;;;;;;;16.15;33.31;100062.53;1776070;79;21196;-78
2022/05/17 06:41:40;;;;;;;9.40;2.60;;;;;;;16.15;34.04;100059.23;1775997;80;21473;-78
2022/05/17 06:44:47;;;;;;;7.05;2.17;;;;;;;16.18;33.21;100057.93;1774226;80;21215;-77
2022/05/17 06:47:48;;;;;;;12.37;2.30;;;;;;;16.23;33.49;100058.12;1775580;80;21227;-78
2022/05/17 06:50:54;;;;;;;8.48;2.15;;;;;;;16.30;33.15;100056.19;1737805;82;21238;-78
2022/05/17 06:54:01;;;;;;;10.75;3.02;;;;;;;16.41;34.57;100061.53;1708173;83;21281;-78
2022/05/17 06:57:12;;;;;;;14.50;2.58;;;;;;;16.51;34.46;100061.36;1719846;81;21187;-78
2022/05/17 07:00:19;;;;;;;9.00;2.20;;;;;;;16.64;33.86;100063.75;1775345;80;21183;-78
2022/05/17 07:03:24;;;;;;;7.00;2.45;;;;;;;16.70;33.78;100054.56;1747714;80;21777;-79
2022/05/17 07:06:30;;;;;;;4.62;2.02;;;;;;;16.76;33.40;100060.63;1802873;79;21682;-78
2022/05/17 07:09:36;;;;;;;18.67;2.40;;;;;;;16.83;33.98;100064.18;1737644;82;21202;-79
2022/05/17 07:16:06;;;;;;;12.35;1.70;;;;;;;16.97;33.26;100059.41;1737987;81;21774;-79
2022/05/17 07:19:12;;;;;;;6.22;1.50;;;;;;;17.07;34.34;100053.68;1718355;82;21207;-79
2022/05/17 07:22:19;;;;;;;4.92;1.45;;;;;;;17.18;33.36;100043.84;1713161;81;21210;-80
2022/05/17 07:25:24;;;;;;;5.50;2.02;;;;;;;17.26;34.46;100044.91;1708066;82;21166;-84
2022/05/17 07:28:31;;;;;;;3.80;1.67;;;;;;;17.34;34.99;100041.87;1723633;81;21551;-85
2022/05/17 07:31:37;;;;;;;5.03;1.30;;;;;;;17.43;34.63;100047.11;1698905;83;21874;-85
2022/05/17 07:34:43;;;;;;;6.28;1.37;;;;;;;17.51;33.80;100037.15;1713356;82;21807;-85
2022/05/17 07:37:49;;;;;;;7.42;1.37;;;;;;;17.66;34.46;100039.55;1701677;82;21342;-84
2022/05/17 07:40:58;;;;;;;4.95;0.93;;;;;;;17.84;33.13;100030.75;1718787;82;21284;-85
2022/05/17 07:44:04;;;;;;;4.08;0.78;;;;;;;17.98;33.10;100026.45;1718801;83;21580;-85
2022/05/17 07:47:10;;;;;;;7.92;0.70;;;;;;;18.07;32.84;100025.05;1721709;82;21772;-85
2022/05/17 07:50:17;;;;;;;2.08;0.72;;;;;;;18.14;32.72;100023.87;1722234;82;21747;-85
2022/05/17 07:53:24;;;;;;;5.83;0.70;;;;;;;18.25;33.84;100033.84;1721603;81;21221;-81
2022/05/17 07:56:32;;;;;;;4.10;0.73;;;;;;;18.35;31.60;100034.16;1720984;83;21214;-77
2022/05/17 07:59:38;;;;;;;3.27;0.70;;;;;;;18.40;31.10;100026.00;1703324;83;21190;-77
2022/05/17 08:02:44;;;;;;;1.05;0.50;;;;;;;18.39;30.74;100039.52;1708781;83;21201;-77
2022/05/17 08:05:52;;;;;;;1.12;0.50;;;;;;;18.32;30.87;100032.69;1735375;82;21194;-77
2022/05/17 08:08:58;;;;;;;5.35;0.68;;;;;;;18.32;30.75;100022.16;1708904;82;21418;-77
2022/05/17 08:12:07;;;;;;;2.40;0.68;;;;;;;18.36;30.37;100030.31;1708791;82;21225;-78
2022/05/17 08:15:13;;;;;;;5.25;0.80;;;;;;;18.27;30.30;100030.33;1701195;82;21280;-79
2022/05/17 08:18:20;;;;;;;1.62;0.60;;;;;;;18.18;31.03;100026.19;1715046;81;21727;-84
2022/05/17 08:21:25;;;;;;;1.40;0.62;;;;;;;18.17;32.12;100024.50;1728047;81;21664;-84
2022/05/17 08:27:31;;;;;;;3.75;1.32;;;;;;;18.09;30.27;100018.20;1766769;80;21179;-78
2022/05/17 08:27:37;;;;;;;2.33;0.88;;;;;;;17.99;30.61;100014.30;1765922;80;21216;-79
2022/05/17 08:30:43;;;;;;;3.47;0.65;;;;;;;17.93;31.47;100011.92;1765971;80;21223;-79
2022/05/17 08:33:49;;;;;;;1.55;0.62;;;;;;;17.85;31.49;100012.22;1761386;80;21252;-79
2022/05/17 08:36:55;;;;;;;2.95;0.70;;;;;;;17.82;31.24;100016.83;1760391;80;21196;-79
2022/05/17 08:40:00;;;;;;;7.50;0.75;;;;;;;17.87;30.66;100003.14;1764612;79;21186;-79
2022/05/17 08:43:32;;;;;;;1.45;0.47;;;;;;;17.99;30.96;100008.22;1767620;79;21176;-79
2022/05/17 08:47:20;;;;;;;2.17;0.80;;;;;;;18.14;30.60;100007.81;1758884;80;21215;-78
2022/05/17 08:50:34;;;;;;;1.52;0.68;;;;;;;18.29;30.77;99992.16;1768575;79;21776;-79
2022/05/17 08:53:40;;;;;;;2.42;0.80;;;;;;;18.46;31.95;99992.36;1763076;80;21196;-79
2022/05/17 08:56:52;;;;;;;1.60;0.60;;;;;;;18.55;30.30;99993.17;1713750;81;21198;-79
2022/05/17 08:59:57;;;;;;;1.92;0.68;;;;;;;18.63;30.08;99994.23;1765672;79;21145;-79
2022/05/17 09:03:07;;;;;;;3.92;0.50;;;;;;;18.68;31.18;99990.75;1726686;81;21221;-79
2022/05/17 09:06:41;;;;;;;6.00;0.85;;;;;;;18.82;30.51;99990.00;1734815;82;21428;-79
2022/05/17 09:10:08;;;;;;;2.35;0.60;;;;;;;18.92;29.96;99984.73;1740088;82;21140;-79
2022/05/17 09:13:51;;;;;;;1.42;0.60;;;;;;;18.90;27.71;99992.44;1729876;81;21201;-79
2022/05/17 09:17:07;;;;;;;5.95;0.93;;;;;;;18.91;28.60;99988.57;1706805;84;21875;-79
2022/05/17 09:20:14;;;;;;;1.60;0.57;;;;;;;18.98;27.71;99978.78;1723279;82;21183;-80
2022/05/17 09:23:18;;;;;;;1.47;0.60;;;;;;;19.09;29.20;99972.39;1754078;80;21763;-86
2022/05/17 09:26:18;;;;;;;3.85;0.55;;;;;;;19.15;28.60;99983.92;1754528;81;21216;-79
2022/05/17 09:29:37;;;;;;;2.83;0.80;;;;;;;19.23;28.73;99968.84;1767109;79;21211;-79
2022/05/17 09:32:48;;;;;;;2.75;0.60;;;;;;;19.39;29.82;99965.34;1753105;79;21293;-79
2022/05/17 09:36:05;;;;;;;2.10;0.95;;;;;;;19.65;29.55;99969.00;1767311;79;21810;-80
2022/05/17 09:39:11;;;;;;;2.35;0.50;;;;;;;19.85;28.86;99966.36;1729234;82;21209;-80
2022/05/17 09:42:17;;;;;;;3.42;0.60;;;;;;;19.87;28.29;99966.98;1708192;82;21190;-80
2022/05/17 09:45:24;;;;;;;1.45;0.53;;;;;;;19.76;27.80;99967.31;1673090;83;21186;-79
2022/05/17 09:55:31;;;;;;;1.85;0.60;;;;;;;18.98;29.23;99968.53;1714998;83;21724;-79
2022/05/17 09:58:45;;;;;;;1.85;0.72;;;;;;;18.98;29.60;99960.77;1732572;81;21715;-79
2022/05/17 10:01:52;;;;;;;4.72;0.50;;;;;;;19.19;29.47;99969.02;1771871;79;21675;-78
2022/05/17 10:04:57;;;;;;;7.72;1.00;;;;;;;19.29;29.64;99965.96;1779265;79;21153;-77
2022/05/17 10:08:09;;;;;;;2.98;0.60;;;;;;;19.22;29.19;99960.22;1779050;79;21129;-78
2022/05/17 10:11:34;;;;;;;1.62;0.70;;;;;;;19.08;29.13;99966.00;1773534;79;21597;-77
2022/05/17 10:14:58;;;;;;;11.20;1.00;;;;;;;18.93;29.03;99958.71;1771936;80;21515;-78
2022/05/17 10:18:10;;;;;;;1.10;0.70;;;;;;;18.88;30.14;99958.05;1708050;81;21746;-78
2022/05/17 10:21:29;;;;;;;2.60;0.70;;;;;;;18.97;30.36;99958.54;1746119;81;21163;-78
2022/05/17 10:24:43;;;;;;;1.90;0.60;;;;;;;19.05;30.66;99955.39;1734550;82;21805;-78
2022/05/17 10:27:53;;;;;;;0.90;0.50;;;;;;;19.09;29.93;99947.44;1723465;81;21215;-78
2022/05/17 10:31:29;;;;;;;1.52;0.45;;;;;;;19.13;29.43;99944.49;1743721;81;21228;-78
2022/05/17 10:34:55;;;;;;;1.62;0.50;;;;;;;19.12;29.19;99938.11;1748052;82;21200;-78
2022/05/17 10:38:20;;;;;;;3.25;0.80;;;;;;;19.17;29.20;99944.31;1748258;82;21246;-78
2022/05/17 10:41:26;;;;;;;1.27;0.60;;;;;;;19.33;30.02;99942.73;1699740;82;21563;-78
2022/05/17 10:44:33;;;;;;;3.65;0.57;;;;;;;19.64;29.49;99947.06;1698747;82;21607;-78
2022/05/17 10:47:49;;;;;;;2.08;0.90;;;;;;;19.99;30.15;99935.84;1717941;83;21192;-80
2022/05/17 10:51:08;;;;;;;0.85;0.50;;;;;;;20.27;29.21;99932.77;1708412;82;21185;-78
2022/05/17 10:54:30;;;;;;;1.20;0.60;;;;;;;20.37;28.80;99934.34;1706527;82;21673;-79
2022/05/17 10:58:14;;;;;;;7.47;0.60;;;;;;;20.55;28.42;99936.09;1708008;83;21808;-79
2022/05/17 11:01:37;;;;;;;2.37;0.60;;;;;;;20.65;27.30;99931.58;1707192;83;21181;-78
2022/05/17 11:05:23;;;;;;;3.30;0.50;;;;;;;20.50;28.08;99936.84;1710246;82;21255;-78
2022/05/17 11:08:43;;;;;;;4.92;1.37;;;;;;;20.28;27.76;99927.51;1712584;83;21216;-78
2022/05/17 11:12:17;;;;;;;1.98;0.78;;;;;;;20.07;28.60;99929.91;1710966;83;21185;-78
2022/05/17 11:15:32;;;;;;;4.55;0.60;;;;;;;19.81;28.60;99918.86;1679130;83;21248;-85
2022/05/17 11:18:52;;;;;;;2.30;0.65;;;;;;;19.80;29.95;99922.70;1698041;82;21228;-84
2022/05/17 11:22:01;;;;;;;1.70;0.80;;;;;;;19.81;28.72;99917.47;1689751;83;21192;-84
2022/05/17 11:25:27;;;;;;;6.00;0.80;;;;;;;19.86;28.77;99907.02;1706570;84;21173;-85
2022/05/17 11:29:16;;;;;;;2.72;0.70;;;;;;;19.91;28.87;99915.44;1700842;83;21771;-84
2022/05/17 11:32:39;;;;;;;4.92;0.75;;;;;;;19.90;29.83;99914.60;1697702;83;21201;-84
2022/05/17 11:35:47;;;;;;;0.95;0.50;;;;;;;19.84;28.70;99905.02;1682860;85;21205;-84
2022/05/17 11:38:55;;;;;;;1.98;0.65;;;;;;;19.88;29.73;99903.44;1689350;83;21224;-84
2022/05/17 11:42:03;;;;;;;1.45;0.50;;;;;;;19.87;28.86;99902.59;1703556;82;21264;-84
2022/05/17 11:45:29;;;;;;;2.52;0.57;;;;;;;19.69;29.48;99901.94;1684383;83;21161;-84
2022/05/17 11:49:04;;;;;;;0.53;0.40;;;;;;;19.53;29.52;99898.82;1690282;84;21257;-85
2022/05/17 11:52:15;;;;;;;3.42;0.57;;;;;;;19.40;29.32;99889.38;1687911;84;22036;-84
2022/05/17 11:55:29;;;;;;;2.05;0.55;;;;;;;19.26;29.44;99887.41;1703087;83;21177;-83
2022/05/17 11:58:37;;;;;;;2.40;0.65;;;;;;;19.19;28.87;99883.91;1710293;83;21212;-84
2022/05/17 12:01:47;;;;;;;2.33;0.70;;;;;;;19.20;28.75;99880.63;1691850;84;21878;-85
2022/05/17 12:04:53;;;;;;;1.50;0.88;;;;;;;19.21;29.95;99879.53;1691124;83;21192;-84
2022/05/17 12:07:59;;;;;;;4.00;1.10;;;;;;;19.16;29.30;99874.72;1669141;84;21180;-84
2022/05/17 12:11:12;;;;;;;5.35;0.90;;;;;;;19.17;30.27;99874.17;1697498;83;22241;-84
2022/05/17 12:15:00;;;;;;;1.12;0.60;;;;;;;19.10;30.23;99866.83;1687851;83;21211;-85
2022/05/17 12:18:48;;;;;;;3.83;0.80;;;;;;;19.01;29.77;99865.52;1701325;83;21213;-84
2022/05/17 12:22:29;;;;;;;2.62;0.55;;;;;;;18.95;29.22;99851.77;1707678;82;21212;-84
2022/05/17 12:25:52;;;;;;;1.98;0.60;;;;;;;19.02;29.30;99864.97;1713564;82;21745;-84
2022/05/17 12:28:54;;;;;;;4.20;0.50;;;;;;;19.13;30.98;99857.17;1705812;83;21177;-78
2022/05/17 12:32:10;;;;;;;9.35;0.80;;;;;;;19.17;29.96;99851.99;1694826;82;21259;-78
2022/05/17 12:35:15;;;;;;;1.70;0.53;;;;;;;19.19;30.06;99852.58;1710020;83;21192;-84
2022/05/17 12:45:32;;;;;;;7.90;0.80;;;;;;;19.66;31.36;99836.67;1702929;83;21171;-78
2022/05/17 12:48:47;;;;;;;6.25;0.85;;;;;;;19.95;29.38;99826.44;1693072;83;21223;-78
2022/05/17 12:51:52;;;;;;;2.02;0.72;;;;;;;20.19;28.31;99824.91;1692995;83;21164;-79
2022/05/17 12:54:57;;;;;;;6.92;0.50;;;;;;;20.43;29.00;99823.09;1692773;84;21160;-78
2022/05/17 12:58:03;;;;;;;1.12;0.60;;;;;;;20.62;27.97;99815.38;1707673;82;21208;-78
2022/05/17 13:01:08;;;;;;;2.22;0.70;;;;;;;20.68;27.31;99812.12;1720279;82;21212;-78
2022/05/17 13:04:20;;;;;;;1.32;0.60;;;;;;;20.70;26.08;99820.19;1717870;82;21782;-78
2022/05/17 13:07:29;;;;;;;1.55;0.50;;;;;;;20.52;25.59;99815.77;1736258;82;21141;-78
2022/05/17 13:10:33;;;;;;;1.57;0.80;;;;;;;20.33;25.38;99809.59;1738003;82;21208;-78
2022/05/17 13:13:41;;;;;;;6.47;0.93;;;;;;;20.25;25.47;99810.84;1729742;81;21141;-85
2022/05/17 13:16:49;;;;;;;1.52;0.60;;;;;;;20.12;25.47;99812.01;1738282;81;21617;-85
2022/05/17 13:19:54;;;;;;;1.37;0.55;;;;;;;20.03;26.20;99805.19;1740087;81;21173;-84
2022/05/17 13:23:02;;;;;;;2.47;0.80;;;;;;;20.05;26.31;99798.02;1739372;81;21804;-84
2022/05/17 13:26:10;;;;;;;3.15;0.60;;;;;;;20.03;26.75;99795.47;1736057;81;21721;-84
2022/05/17 13:29:43;;;;;;;1.20;0.70;;;;;;;19.98;27.46;99792.61;1752359;81;21560;-84
2022/05/17 13:32:49;;;;;;;2.40;0.70;;;;;;;20.03;27.83;99791.85;1722948;80;21212;-85
2022/05/17 13:36:02;;;;;;;1.17;0.50;;;;;;;19.91;27.14;99794.71;1714440;82;21134;-84
2022/05/17 13:39:08;;;;;;;2.05;0.57;;;;;;;19.65;27.92;99797.00;1733733;82;21190;-85
2022/05/17 13:42:35;;;;;;;10.00;0.90;;;;;;;19.43;27.82;99793.19;1730812;82;21198;-84
2022/05/17 13:45:40;;;;;;;2.12;0.60;;;;;;;19.25;28.63;99798.95;1732479;82;21206;-84
2022/05/17 13:48:58;;;;;;;2.92;0.70;;;;;;;19.23;28.38;99798.33;1729662;83;21258;-84
2022/05/17 13:52:15;;;;;;;2.02;0.53;;;;;;;19.24;27.77;99788.92;1732640;81;21167;-85
2022/05/17 13:55:41;;;;;;;1.85;0.50;;;;;;;19.25;28.87;99797.56;1735443;82;21167;-84
2022/05/17 13:58:46;;;;;;;1.32;0.50;;;;;;;19.28;30.43;99785.95;1750622;79;21778;-84
2022/05/17 14:02:05;;;;;;;0.80;0.42;;;;;;;19.39;28.68;99784.55;1740536;81;21220;-85
2022/05/17 14:05:40;;;;;;;2.83;0.50;;;;;;;19.47;27.75;99776.36;1741710;79;21181;-84
2022/05/17 14:12:19;;;;;;;2.42;0.80;;;;;;;19.56;28.16;99775.42;1785532;78;21188;-84
2022/05/17 14:15:25;;;;;;;1.07;0.70;;;;;;;19.56;27.30;99766.55;1762308;81;21197;-84
2022/05/17 14:18:34;;;;;;;1.57;0.50;;;;;;;19.56;28.07;99776.81;1727799;81;21910;-84
2022/05/17 14:21:42;;;;;;;2.62;0.60;;;;;;;19.54;28.54;99772.06;1730350;83;21832;-84
2022/05/17 14:24:47;;;;;;;3.10;0.60;;;;;;;19.53;27.31;99766.23;1767286;81;21212;-84
2022/05/17 14:27:47;;;;;;;5.50;0.70;;;;;;;19.49;27.69;99770.03;1731074;81;21222;-78
2022/05/17 14:30:55;;;;;;;3.10;0.75;;;;;;;19.47;28.23;99768.03;1720079;82;21187;-78
2022/05/17 14:34:02;;;;;;;1.35;0.47;;;;;;;19.46;27.65;99765.52;1735396;81;21571;-78
2022/05/17 14:37:07;;;;;;;3.55;0.82;;;;;;;19.43;27.57;99761.84;1731230;82;21599;-78
2022/05/17 14:40:14;;;;;;;6.65;0.80;;;;;;;19.34;26.96;99760.03;1736545;81;21577;-78
2022/05/17 14:43:21;;;;;;;0.55;0.40;;;;;;;19.24;27.33;99757.87;1699683;82;21251;-78
2022/05/17 14:46:29;;;;;;;2.33;0.80;;;;;;;19.15;28.09;99752.45;1728935;81;21223;-78
2022/05/17 14:49:34;;;;;;;1.77;0.50;;;;;;;19.08;27.51;99752.58;1721804;82;21761;-78
2022/05/17 14:52:33;;;;;;;2.85;0.60;;;;;;;19.01;27.90;99746.34;1769318;79;21156;-78
2022/05/17 14:55:39;;;;;;;1.80;0.70;;;;;;;18.96;28.48;99743.98;1771866;80;21726;-78
2022/05/17 14:58:46;;;;;;;1.22;0.70;;;;;;;18.94;28.82;99744.78;1768632;79;21460;-78
2022/05/17 15:01:54;;;;;;;3.52;0.40;;;;;;;18.90;28.20;99738.34;1765362;81;21815;-78
2022/05/17 15:05:00;;;;;;;6.40;0.60;;;;;;;18.87;28.19;99731.08;1766568;81;21534;-78
2022/05/17 15:08:05;;;;;;;5.40;1.85;;;;;;;18.82;28.55;99731.81;1769228;80;21758;-78